sensor_id;sensor_type;location;lat;lon;timestamp;P1;durP1;ratioP1;P2;durP2;ratioP2
35290;SDS011;21411;50.024;19.220;2023-08-20T00:01:15;24.20;;;22.00;;
35290;SDS011;21411;50.024;19.220;2023-08-20T00:03:46;25.20;;;23.10;;
35290;SDS011;21411;50.024;19.220;2023-08-20T00:06:14;25.60;;;23.40;;
35290;SDS011;21411;50.024;19.220;2023-08-20T00:08:41;29.60;;;26.80;;
35290;SDS011;21411;50.024;19.220;2023-08-20T00:11:08;29.50;;;26.80;;
35290;SDS011;21411;50.024;19.220;2023-08-20T00:13:35;28.50;;;25.90;;
35290;SDS011;21411;50.024;19.220;2023-08-20T00:16:02;29.00;;;26.40;;
35290;SDS011;21411;50.024;19.220;2023-08-20T00:18:29;26.60;;;24.10;;
35290;SDS011;21411;50.024;19.220;2023-08-20T00:20:56;27.50;;;24.80;;
35290;SDS011;21411;50.024;19.220;2023-08-20T00:23:23;24.60;;;22.40;;
35290;SDS011;21411;50.024;19.220;2023-08-20T00:25:50;29.10;;;26.40;;
35290;SDS011;21411;50.024;19.220;2023-08-20T00:28:17;29.50;;;26.70;;
35290;SDS011;21411;50.024;19.220;2023-08-20T00:30:45;29.40;;;26.70;;
35290;SDS011;21411;50.024;19.220;2023-08-20T00:33:12;28.50;;;26.00;;
35290;SDS011;21411;50.024;19.220;2023-08-20T00:35:39;32.50;;;29.30;;
35290;SDS011;21411;50.024;19.220;2023-08-20T00:38:06;34.60;;;31.10;;
35290;SDS011;21411;50.024;19.220;2023-08-20T00:40:32;37.90;;;34.00;;
35290;SDS011;21411;50.024;19.220;2023-08-20T00:42:59;35.90;;;32.10;;
35290;SDS011;21411;50.024;19.220;2023-08-20T00:45:26;24.70;;;22.70;;
35290;SDS011;21411;50.024;19.220;2023-08-20T00:47:53;30.10;;;27.20;;
35290;SDS011;21411;50.024;19.220;2023-08-20T00:50:20;27.80;;;25.10;;
35290;SDS011;21411;50.024;19.220;2023-08-20T00:52:47;27.40;;;25.00;;
35290;SDS011;21411;50.024;19.220;2023-08-20T00:55:14;27.60;;;25.10;;
35290;SDS011;21411;50.024;19.220;2023-08-20T00:57:40;28.40;;;25.70;;
35290;SDS011;21411;50.024;19.220;2023-08-20T01:00:08;26.80;;;24.10;;
35290;SDS011;21411;50.024;19.220;2023-08-20T01:02:37;25.60;;;23.40;;
35290;SDS011;21411;50.024;19.220;2023-08-20T01:05:04;20.50;;;18.80;;
35290;SDS011;21411;50.024;19.220;2023-08-20T01:10:19;22.50;;;20.50;;
35290;SDS011;21411;50.024;19.220;2023-08-20T01:12:56;23.80;;;21.80;;
35290;SDS011;21411;50.024;19.220;2023-08-20T01:15:23;25.70;;;23.30;;
35290;SDS011;21411;50.024;19.220;2023-08-20T01:17:50;30.00;;;27.30;;
35290;SDS011;21411;50.024;19.220;2023-08-20T01:20:17;30.90;;;28.10;;
35290;SDS011;21411;50.024;19.220;2023-08-20T01:30:42;27.00;;;24.50;;
35290;SDS011;21411;50.024;19.220;2023-08-20T01:33:11;25.40;;;23.10;;
35290;SDS011;21411;50.024;19.220;2023-08-20T01:35:38;26.40;;;24.10;;
35290;SDS011;21411;50.024;19.220;2023-08-20T01:38:05;32.10;;;29.30;;
35290;SDS011;21411;50.024;19.220;2023-08-20T01:40:31;27.40;;;24.80;;
35290;SDS011;21411;50.024;19.220;2023-08-20T01:42:58;27.00;;;24.50;;
35290;SDS011;21411;50.024;19.220;2023-08-20T01:45:25;24.00;;;21.90;;
35290;SDS011;21411;50.024;19.220;2023-08-20T01:47:52;25.50;;;23.00;;
35290;SDS011;21411;50.024;19.220;2023-08-20T01:50:19;28.80;;;26.00;;
35290;SDS011;21411;50.024;19.220;2023-08-20T01:52:45;28.70;;;26.00;;
35290;SDS011;21411;50.024;19.220;2023-08-20T01:55:12;27.10;;;24.50;;
35290;SDS011;21411;50.024;19.220;2023-08-20T01:57:38;26.00;;;23.50;;
35290;SDS011;21411;50.024;19.220;2023-08-20T02:02:57;23.30;;;21.20;;
35290;SDS011;21411;50.024;19.220;2023-08-20T02:05:23;23.10;;;21.00;;
35290;SDS011;21411;50.024;19.220;2023-08-20T02:07:50;23.00;;;21.00;;
35290;SDS011;21411;50.024;19.220;2023-08-20T02:10:16;20.50;;;18.60;;
35290;SDS011;21411;50.024;19.220;2023-08-20T02:12:43;22.30;;;20.20;;
35290;SDS011;21411;50.024;19.220;2023-08-20T02:15:10;21.40;;;19.60;;
35290;SDS011;21411;50.024;19.220;2023-08-20T02:17:39;29.20;;;26.50;;
35290;SDS011;21411;50.024;19.220;2023-08-20T02:20:06;29.40;;;26.70;;
35290;SDS011;21411;50.024;19.220;2023-08-20T02:22:38;31.00;;;28.00;;
35290;SDS011;21411;50.024;19.220;2023-08-20T02:25:05;31.30;;;28.40;;
35290;SDS011;21411;50.024;19.220;2023-08-20T02:27:31;29.20;;;26.30;;
35290;SDS011;21411;50.024;19.220;2023-08-20T02:29:58;30.10;;;27.20;;
35290;SDS011;21411;50.024;19.220;2023-08-20T02:32:25;27.90;;;25.30;;
35290;SDS011;21411;50.024;19.220;2023-08-20T02:34:52;30.60;;;27.90;;
35290;SDS011;21411;50.024;19.220;2023-08-20T02:37:20;29.30;;;26.70;;
35290;SDS011;21411;50.024;19.220;2023-08-20T02:39:47;29.20;;;26.80;;
35290;SDS011;21411;50.024;19.220;2023-08-20T02:42:13;28.10;;;25.50;;
35290;SDS011;21411;50.024;19.220;2023-08-20T02:44:40;27.90;;;25.30;;
35290;SDS011;21411;50.024;19.220;2023-08-20T02:47:06;24.10;;;21.90;;
35290;SDS011;21411;50.024;19.220;2023-08-20T02:49:33;21.10;;;19.20;;
35290;SDS011;21411;50.024;19.220;2023-08-20T02:51:59;21.80;;;19.90;;
35290;SDS011;21411;50.024;19.220;2023-08-20T02:54:26;24.10;;;22.00;;
35290;SDS011;21411;50.024;19.220;2023-08-20T02:56:53;25.80;;;23.40;;
35290;SDS011;21411;50.024;19.220;2023-08-20T02:59:19;26.70;;;24.10;;
35290;SDS011;21411;50.024;19.220;2023-08-20T03:01:46;23.80;;;21.70;;
35290;SDS011;21411;50.024;19.220;2023-08-20T03:04:13;23.80;;;21.70;;
35290;SDS011;21411;50.024;19.220;2023-08-20T03:06:39;26.40;;;24.00;;
35290;SDS011;21411;50.024;19.220;2023-08-20T03:09:06;26.70;;;24.20;;
35290;SDS011;21411;50.024;19.220;2023-08-20T03:11:32;24.40;;;22.30;;
35290;SDS011;21411;50.024;19.220;2023-08-20T03:13:59;27.80;;;25.20;;
35290;SDS011;21411;50.024;19.220;2023-08-20T03:16:25;26.90;;;24.30;;
35290;SDS011;21411;50.024;19.220;2023-08-20T03:18:52;26.20;;;24.00;;
35290;SDS011;21411;50.024;19.220;2023-08-20T03:21:18;26.30;;;24.00;;
35290;SDS011;21411;50.024;19.220;2023-08-20T03:23:45;27.70;;;25.30;;
35290;SDS011;21411;50.024;19.220;2023-08-20T03:26:12;27.00;;;24.60;;
35290;SDS011;21411;50.024;19.220;2023-08-20T03:28:39;27.50;;;24.90;;
35290;SDS011;21411;50.024;19.220;2023-08-20T03:31:06;29.00;;;26.30;;
35290;SDS011;21411;50.024;19.220;2023-08-20T03:33:32;28.50;;;25.80;;
35290;SDS011;21411;50.024;19.220;2023-08-20T03:35:59;27.70;;;25.20;;
35290;SDS011;21411;50.024;19.220;2023-08-20T03:38:25;27.40;;;24.50;;
35290;SDS011;21411;50.024;19.220;2023-08-20T03:40:52;27.00;;;24.50;;
35290;SDS011;21411;50.024;19.220;2023-08-20T03:43:20;26.80;;;24.10;;
35290;SDS011;21411;50.024;19.220;2023-08-20T03:45:50;27.50;;;24.80;;
35290;SDS011;21411;50.024;19.220;2023-08-20T03:48:17;28.60;;;25.90;;
35290;SDS011;21411;50.024;19.220;2023-08-20T03:50:44;29.10;;;26.30;;
35290;SDS011;21411;50.024;19.220;2023-08-20T03:53:11;28.80;;;26.20;;
35290;SDS011;21411;50.024;19.220;2023-08-20T03:55:37;25.90;;;23.40;;
35290;SDS011;21411;50.024;19.220;2023-08-20T03:58:04;27.90;;;25.40;;
35290;SDS011;21411;50.024;19.220;2023-08-20T04:00:30;25.10;;;22.70;;
35290;SDS011;21411;50.024;19.220;2023-08-20T04:02:57;21.50;;;19.80;;
35290;SDS011;21411;50.024;19.220;2023-08-20T04:05:24;23.00;;;20.80;;
35290;SDS011;21411;50.024;19.220;2023-08-20T04:07:50;24.20;;;22.10;;
35290;SDS011;21411;50.024;19.220;2023-08-20T04:10:17;21.50;;;19.80;;
35290;SDS011;21411;50.024;19.220;2023-08-20T04:12:43;22.10;;;20.10;;
35290;SDS011;21411;50.024;19.220;2023-08-20T04:15:10;20.60;;;18.60;;
35290;SDS011;21411;50.024;19.220;2023-08-20T04:17:36;21.30;;;19.30;;
35290;SDS011;21411;50.024;19.220;2023-08-20T04:20:03;23.60;;;21.50;;
35290;SDS011;21411;50.024;19.220;2023-08-20T04:22:32;22.10;;;20.00;;
35290;SDS011;21411;50.024;19.220;2023-08-20T04:24:59;20.40;;;18.70;;
35290;SDS011;21411;50.024;19.220;2023-08-20T04:27:25;20.10;;;18.30;;
35290;SDS011;21411;50.024;19.220;2023-08-20T04:29:52;22.70;;;20.60;;
35290;SDS011;21411;50.024;19.220;2023-08-20T04:32:18;19.30;;;17.70;;
35290;SDS011;21411;50.024;19.220;2023-08-20T04:34:45;17.90;;;16.30;;
35290;SDS011;21411;50.024;19.220;2023-08-20T04:37:12;19.20;;;17.50;;
35290;SDS011;21411;50.024;19.220;2023-08-20T04:39:39;18.90;;;17.30;;
35290;SDS011;21411;50.024;19.220;2023-08-20T04:42:05;18.10;;;16.50;;
35290;SDS011;21411;50.024;19.220;2023-08-20T04:44:32;19.10;;;17.50;;
35290;SDS011;21411;50.024;19.220;2023-08-20T04:46:59;18.50;;;16.80;;
35290;SDS011;21411;50.024;19.220;2023-08-20T04:49:26;17.50;;;16.00;;
35290;SDS011;21411;50.024;19.220;2023-08-20T04:51:54;18.40;;;16.80;;
35290;SDS011;21411;50.024;19.220;2023-08-20T04:54:21;18.00;;;16.60;;
35290;SDS011;21411;50.024;19.220;2023-08-20T04:56:47;18.80;;;17.30;;
35290;SDS011;21411;50.024;19.220;2023-08-20T04:59:14;18.90;;;17.50;;
35290;SDS011;21411;50.024;19.220;2023-08-20T05:01:40;19.80;;;18.30;;
35290;SDS011;21411;50.024;19.220;2023-08-20T05:04:07;19.00;;;17.40;;
35290;SDS011;21411;50.024;19.220;2023-08-20T05:06:33;17.90;;;16.40;;
35290;SDS011;21411;50.024;19.220;2023-08-20T05:09:00;18.10;;;16.60;;
35290;SDS011;21411;50.024;19.220;2023-08-20T05:11:27;17.30;;;16.10;;
35290;SDS011;21411;50.024;19.220;2023-08-20T05:13:55;17.70;;;16.30;;
35290;SDS011;21411;50.024;19.220;2023-08-20T05:16:21;17.80;;;16.50;;
35290;SDS011;21411;50.024;19.220;2023-08-20T05:18:48;18.10;;;16.60;;
35290;SDS011;21411;50.024;19.220;2023-08-20T05:21:14;17.70;;;16.30;;
35290;SDS011;21411;50.024;19.220;2023-08-20T05:23:41;16.40;;;15.10;;
35290;SDS011;21411;50.024;19.220;2023-08-20T05:26:07;17.00;;;15.50;;
35290;SDS011;21411;50.024;19.220;2023-08-20T05:28:34;16.80;;;15.40;;
35290;SDS011;21411;50.024;19.220;2023-08-20T05:31:01;15.50;;;14.30;;
35290;SDS011;21411;50.024;19.220;2023-08-20T05:33:27;16.70;;;15.20;;
35290;SDS011;21411;50.024;19.220;2023-08-20T05:35:54;16.50;;;15.10;;
35290;SDS011;21411;50.024;19.220;2023-08-20T05:38:20;16.00;;;14.60;;
35290;SDS011;21411;50.024;19.220;2023-08-20T05:40:47;16.60;;;15.30;;
35290;SDS011;21411;50.024;19.220;2023-08-20T05:43:13;15.90;;;14.80;;
35290;SDS011;21411;50.024;19.220;2023-08-20T05:45:40;16.60;;;15.30;;
35290;SDS011;21411;50.024;19.220;2023-08-20T05:48:06;16.30;;;15.20;;
35290;SDS011;21411;50.024;19.220;2023-08-20T05:50:33;16.30;;;15.00;;
35290;SDS011;21411;50.024;19.220;2023-08-20T05:53:00;15.60;;;14.50;;
35290;SDS011;21411;50.024;19.220;2023-08-20T05:55:27;15.80;;;14.60;;
35290;SDS011;21411;50.024;19.220;2023-08-20T05:57:54;16.20;;;14.90;;
35290;SDS011;21411;50.024;19.220;2023-08-20T06:00:20;15.80;;;14.70;;
35290;SDS011;21411;50.024;19.220;2023-08-20T06:02:47;14.00;;;12.90;;
35290;SDS011;21411;50.024;19.220;2023-08-20T06:05:13;14.20;;;12.90;;
35290;SDS011;21411;50.024;19.220;2023-08-20T06:07:40;13.90;;;12.80;;
35290;SDS011;21411;50.024;19.220;2023-08-20T06:10:07;14.50;;;13.30;;
35290;SDS011;21411;50.024;19.220;2023-08-20T06:12:34;15.00;;;13.90;;
35290;SDS011;21411;50.024;19.220;2023-08-20T06:15:00;15.50;;;14.30;;
35290;SDS011;21411;50.024;19.220;2023-08-20T06:17:27;15.10;;;13.80;;
35290;SDS011;21411;50.024;19.220;2023-08-20T06:19:53;16.00;;;14.80;;
35290;SDS011;21411;50.024;19.220;2023-08-20T06:22:20;16.50;;;15.20;;
35290;SDS011;21411;50.024;19.220;2023-08-20T06:24:46;15.60;;;14.30;;
35290;SDS011;21411;50.024;19.220;2023-08-20T06:27:13;15.70;;;14.60;;
35290;SDS011;21411;50.024;19.220;2023-08-20T06:29:39;15.70;;;14.30;;
35290;SDS011;21411;50.024;19.220;2023-08-20T06:32:06;15.10;;;13.70;;
35290;SDS011;21411;50.024;19.220;2023-08-20T06:34:36;14.90;;;13.80;;
35290;SDS011;21411;50.024;19.220;2023-08-20T06:37:02;15.20;;;14.10;;
35290;SDS011;21411;50.024;19.220;2023-08-20T06:39:29;15.80;;;14.50;;
35290;SDS011;21411;50.024;19.220;2023-08-20T06:41:56;16.20;;;14.90;;
35290;SDS011;21411;50.024;19.220;2023-08-20T06:44:22;15.20;;;13.90;;
35290;SDS011;21411;50.024;19.220;2023-08-20T06:46:49;15.10;;;13.90;;
35290;SDS011;21411;50.024;19.220;2023-08-20T06:49:15;15.20;;;13.90;;
35290;SDS011;21411;50.024;19.220;2023-08-20T06:51:42;15.80;;;14.50;;
35290;SDS011;21411;50.024;19.220;2023-08-20T06:54:08;15.80;;;14.60;;
35290;SDS011;21411;50.024;19.220;2023-08-20T06:56:35;15.90;;;14.60;;
35290;SDS011;21411;50.024;19.220;2023-08-20T06:59:02;14.20;;;13.10;;
35290;SDS011;21411;50.024;19.220;2023-08-20T07:01:29;14.50;;;13.40;;
35290;SDS011;21411;50.024;19.220;2023-08-20T07:03:56;15.90;;;14.60;;
35290;SDS011;21411;50.024;19.220;2023-08-20T07:06:22;16.20;;;14.90;;
35290;SDS011;21411;50.024;19.220;2023-08-20T07:08:50;15.00;;;13.80;;
35290;SDS011;21411;50.024;19.220;2023-08-20T07:11:16;14.70;;;13.70;;
35290;SDS011;21411;50.024;19.220;2023-08-20T07:13:43;15.30;;;14.20;;
35290;SDS011;21411;50.024;19.220;2023-08-20T07:16:09;15.40;;;14.30;;
35290;SDS011;21411;50.024;19.220;2023-08-20T07:18:37;15.10;;;13.80;;
35290;SDS011;21411;50.024;19.220;2023-08-20T07:21:03;15.70;;;14.40;;
35290;SDS011;21411;50.024;19.220;2023-08-20T07:23:30;15.80;;;14.60;;
35290;SDS011;21411;50.024;19.220;2023-08-20T07:26:06;16.50;;;15.20;;
35290;SDS011;21411;50.024;19.220;2023-08-20T07:28:34;14.70;;;13.60;;
35290;SDS011;21411;50.024;19.220;2023-08-20T07:31:20;15.90;;;14.50;;
35290;SDS011;21411;50.024;19.220;2023-08-20T07:33:47;14.90;;;13.60;;
35290;SDS011;21411;50.024;19.220;2023-08-20T07:36:14;15.60;;;14.40;;
35290;SDS011;21411;50.024;19.220;2023-08-20T07:38:42;16.20;;;14.80;;
35290;SDS011;21411;50.024;19.220;2023-08-20T07:41:10;15.90;;;14.30;;
35290;SDS011;21411;50.024;19.220;2023-08-20T07:43:37;14.90;;;13.70;;
35290;SDS011;21411;50.024;19.220;2023-08-20T07:46:05;15.20;;;14.10;;
35290;SDS011;21411;50.024;19.220;2023-08-20T07:48:32;15.40;;;14.10;;
35290;SDS011;21411;50.024;19.220;2023-08-20T07:51:00;14.30;;;13.20;;
35290;SDS011;21411;50.024;19.220;2023-08-20T07:53:27;15.30;;;14.00;;
35290;SDS011;21411;50.024;19.220;2023-08-20T07:55:53;18.10;;;16.60;;
35290;SDS011;21411;50.024;19.220;2023-08-20T07:58:20;15.70;;;14.50;;
35290;SDS011;21411;50.024;19.220;2023-08-20T08:00:46;15.80;;;14.60;;
35290;SDS011;21411;50.024;19.220;2023-08-20T08:03:13;15.70;;;14.50;;
35290;SDS011;21411;50.024;19.220;2023-08-20T08:05:41;15.00;;;13.90;;
35290;SDS011;21411;50.024;19.220;2023-08-20T08:08:07;15.60;;;14.40;;
35290;SDS011;21411;50.024;19.220;2023-08-20T08:10:34;15.40;;;14.20;;
35290;SDS011;21411;50.024;19.220;2023-08-20T08:13:01;14.40;;;13.20;;
35290;SDS011;21411;50.024;19.220;2023-08-20T08:15:27;14.50;;;13.40;;
35290;SDS011;21411;50.024;19.220;2023-08-20T08:17:54;15.50;;;14.20;;
35290;SDS011;21411;50.024;19.220;2023-08-20T08:20:20;13.40;;;12.40;;
35290;SDS011;21411;50.024;19.220;2023-08-20T08:22:47;14.40;;;13.20;;
35290;SDS011;21411;50.024;19.220;2023-08-20T08:25:13;12.50;;;11.60;;
35290;SDS011;21411;50.024;19.220;2023-08-20T08:27:40;14.00;;;12.80;;
35290;SDS011;21411;50.024;19.220;2023-08-20T08:30:06;12.90;;;11.90;;
35290;SDS011;21411;50.024;19.220;2023-08-20T08:32:33;12.80;;;11.90;;
35290;SDS011;21411;50.024;19.220;2023-08-20T08:35:00;13.20;;;12.10;;
35290;SDS011;21411;50.024;19.220;2023-08-20T08:37:26;13.90;;;12.90;;
35290;SDS011;21411;50.024;19.220;2023-08-20T08:39:53;12.20;;;11.20;;
35290;SDS011;21411;50.024;19.220;2023-08-20T08:42:20;13.10;;;12.20;;
35290;SDS011;21411;50.024;19.220;2023-08-20T08:44:49;13.00;;;12.10;;
35290;SDS011;21411;50.024;19.220;2023-08-20T08:47:17;13.40;;;12.20;;
35290;SDS011;21411;50.024;19.220;2023-08-20T08:49:45;13.80;;;12.90;;
35290;SDS011;21411;50.024;19.220;2023-08-20T08:52:13;13.10;;;12.10;;
35290;SDS011;21411;50.024;19.220;2023-08-20T08:54:40;15.00;;;13.90;;
35290;SDS011;21411;50.024;19.220;2023-08-20T08:57:07;15.20;;;13.80;;
35290;SDS011;21411;50.024;19.220;2023-08-20T08:59:34;14.30;;;13.10;;
35290;SDS011;21411;50.024;19.220;2023-08-20T09:02:01;13.90;;;12.80;;
35290;SDS011;21411;50.024;19.220;2023-08-20T09:04:28;14.70;;;13.40;;
35290;SDS011;21411;50.024;19.220;2023-08-20T09:06:56;14.20;;;12.90;;
35290;SDS011;21411;50.024;19.220;2023-08-20T09:09:23;14.00;;;13.00;;
35290;SDS011;21411;50.024;19.220;2023-08-20T09:14:23;13.40;;;12.50;;
35290;SDS011;21411;50.024;19.220;2023-08-20T09:16:54;13.90;;;12.80;;
35290;SDS011;21411;50.024;19.220;2023-08-20T09:19:22;14.70;;;13.30;;
35290;SDS011;21411;50.024;19.220;2023-08-20T09:21:48;14.20;;;13.00;;
35290;SDS011;21411;50.024;19.220;2023-08-20T09:24:15;14.00;;;12.90;;
35290;SDS011;21411;50.024;19.220;2023-08-20T09:26:45;13.50;;;12.40;;
35290;SDS011;21411;50.024;19.220;2023-08-20T09:29:12;13.80;;;12.60;;
35290;SDS011;21411;50.024;19.220;2023-08-20T09:31:38;15.00;;;13.90;;
35290;SDS011;21411;50.024;19.220;2023-08-20T09:34:05;12.50;;;11.50;;
35290;SDS011;21411;50.024;19.220;2023-08-20T09:36:34;13.50;;;12.40;;
35290;SDS011;21411;50.024;19.220;2023-08-20T09:39:02;12.40;;;11.50;;
35290;SDS011;21411;50.024;19.220;2023-08-20T09:41:28;12.50;;;11.40;;
35290;SDS011;21411;50.024;19.220;2023-08-20T09:43:56;12.80;;;11.90;;
35290;SDS011;21411;50.024;19.220;2023-08-20T09:46:26;11.90;;;10.70;;
35290;SDS011;21411;50.024;19.220;2023-08-20T09:48:57;11.90;;;11.10;;
35290;SDS011;21411;50.024;19.220;2023-08-20T09:51:25;12.40;;;11.40;;
35290;SDS011;21411;50.024;19.220;2023-08-20T09:56:36;12.60;;;11.60;;
35290;SDS011;21411;50.024;19.220;2023-08-20T09:59:05;11.00;;;10.20;;
35290;SDS011;21411;50.024;19.220;2023-08-20T10:01:32;11.20;;;10.40;;
35290;SDS011;21411;50.024;19.220;2023-08-20T10:03:59;10.70;;;9.80;;
35290;SDS011;21411;50.024;19.220;2023-08-20T10:06:26;10.50;;;9.60;;
35290;SDS011;21411;50.024;19.220;2023-08-20T10:08:53;9.80;;;9.10;;
35290;SDS011;21411;50.024;19.220;2023-08-20T10:11:20;10.70;;;9.70;;
35290;SDS011;21411;50.024;19.220;2023-08-20T10:13:47;10.60;;;9.70;;
35290;SDS011;21411;50.024;19.220;2023-08-20T10:16:34;9.40;;;8.80;;
35290;SDS011;21411;50.024;19.220;2023-08-20T10:19:01;10.50;;;9.70;;
35290;SDS011;21411;50.024;19.220;2023-08-20T10:21:29;10.30;;;9.40;;
35290;SDS011;21411;50.024;19.220;2023-08-20T10:23:56;10.00;;;9.30;;
35290;SDS011;21411;50.024;19.220;2023-08-20T10:26:22;9.30;;;8.70;;
35290;SDS011;21411;50.024;19.220;2023-08-20T10:28:50;8.90;;;8.30;;
35290;SDS011;21411;50.024;19.220;2023-08-20T10:31:17;9.50;;;8.80;;
35290;SDS011;21411;50.024;19.220;2023-08-20T10:36:15;10.00;;;9.20;;
35290;SDS011;21411;50.024;19.220;2023-08-20T10:38:51;10.80;;;9.80;;
35290;SDS011;21411;50.024;19.220;2023-08-20T10:41:28;9.80;;;9.10;;
35290;SDS011;21411;50.024;19.220;2023-08-20T10:43:58;9.70;;;9.00;;
35290;SDS011;21411;50.024;19.220;2023-08-20T10:46:27;10.00;;;9.30;;
35290;SDS011;21411;50.024;19.220;2023-08-20T10:48:58;10.30;;;9.50;;
35290;SDS011;21411;50.024;19.220;2023-08-20T10:51:33;10.60;;;9.80;;
35290;SDS011;21411;50.024;19.220;2023-08-20T10:54:09;10.60;;;9.70;;
35290;SDS011;21411;50.024;19.220;2023-08-20T10:56:38;9.90;;;9.30;;
35290;SDS011;21411;50.024;19.220;2023-08-20T10:59:26;10.60;;;9.50;;
35290;SDS011;21411;50.024;19.220;2023-08-20T11:01:54;11.70;;;10.60;;
35290;SDS011;21411;50.024;19.220;2023-08-20T11:04:22;10.60;;;9.80;;
35290;SDS011;21411;50.024;19.220;2023-08-20T11:06:54;10.50;;;9.80;;
35290;SDS011;21411;50.024;19.220;2023-08-20T11:09:23;11.00;;;10.30;;
35290;SDS011;21411;50.024;19.220;2023-08-20T11:11:51;10.50;;;9.80;;
35290;SDS011;21411;50.024;19.220;2023-08-20T11:14:18;10.50;;;9.70;;
35290;SDS011;21411;50.024;19.220;2023-08-20T11:16:46;10.60;;;9.80;;
35290;SDS011;21411;50.024;19.220;2023-08-20T11:19:15;10.10;;;9.40;;
35290;SDS011;21411;50.024;19.220;2023-08-20T11:21:45;10.40;;;9.70;;
35290;SDS011;21411;50.024;19.220;2023-08-20T11:24:13;10.40;;;9.50;;
35290;SDS011;21411;50.024;19.220;2023-08-20T11:26:40;9.50;;;8.90;;
35290;SDS011;21411;50.024;19.220;2023-08-20T11:29:08;10.10;;;9.40;;
35290;SDS011;21411;50.024;19.220;2023-08-20T11:31:36;11.30;;;10.30;;
35290;SDS011;21411;50.024;19.220;2023-08-20T11:34:03;9.90;;;9.30;;
35290;SDS011;21411;50.024;19.220;2023-08-20T11:36:31;10.10;;;9.30;;
35290;SDS011;21411;50.024;19.220;2023-08-20T11:38:58;10.00;;;9.40;;
35290;SDS011;21411;50.024;19.220;2023-08-20T11:41:25;9.40;;;8.70;;
35290;SDS011;21411;50.024;19.220;2023-08-20T11:43:52;9.30;;;8.60;;
35290;SDS011;21411;50.024;19.220;2023-08-20T11:46:21;9.10;;;8.40;;
35290;SDS011;21411;50.024;19.220;2023-08-20T11:49:07;10.50;;;9.40;;
35290;SDS011;21411;50.024;19.220;2023-08-20T11:51:38;9.60;;;9.00;;
35290;SDS011;21411;50.024;19.220;2023-08-20T11:54:07;10.00;;;9.40;;
35290;SDS011;21411;50.024;19.220;2023-08-20T11:56:34;9.40;;;8.70;;
35290;SDS011;21411;50.024;19.220;2023-08-20T11:59:01;7.90;;;7.40;;
35290;SDS011;21411;50.024;19.220;2023-08-20T12:01:31;9.00;;;8.20;;
35290;SDS011;21411;50.024;19.220;2023-08-20T12:04:03;9.00;;;8.30;;
35290;SDS011;21411;50.024;19.220;2023-08-20T12:06:30;9.00;;;8.30;;
35290;SDS011;21411;50.024;19.220;2023-08-20T12:08:58;9.10;;;8.40;;
35290;SDS011;21411;50.024;19.220;2023-08-20T12:11:27;9.40;;;8.80;;
35290;SDS011;21411;50.024;19.220;2023-08-20T12:13:54;9.60;;;8.80;;
35290;SDS011;21411;50.024;19.220;2023-08-20T12:16:21;8.70;;;8.00;;
35290;SDS011;21411;50.024;19.220;2023-08-20T12:18:49;7.50;;;6.90;;
35290;SDS011;21411;50.024;19.220;2023-08-20T12:21:16;7.30;;;6.80;;
35290;SDS011;21411;50.024;19.220;2023-08-20T12:23:43;7.70;;;7.00;;
35290;SDS011;21411;50.024;19.220;2023-08-20T12:26:10;9.30;;;8.60;;
35290;SDS011;21411;50.024;19.220;2023-08-20T12:28:36;9.70;;;8.80;;
35290;SDS011;21411;50.024;19.220;2023-08-20T12:31:03;8.10;;;7.40;;
35290;SDS011;21411;50.024;19.220;2023-08-20T12:33:30;9.10;;;8.50;;
35290;SDS011;21411;50.024;19.220;2023-08-20T12:35:57;8.30;;;7.80;;
35290;SDS011;21411;50.024;19.220;2023-08-20T12:38:24;9.10;;;8.30;;
35290;SDS011;21411;50.024;19.220;2023-08-20T12:40:51;9.30;;;8.60;;
35290;SDS011;21411;50.024;19.220;2023-08-20T12:43:18;7.80;;;7.30;;
35290;SDS011;21411;50.024;19.220;2023-08-20T12:45:44;9.70;;;8.90;;
35290;SDS011;21411;50.024;19.220;2023-08-20T12:48:11;10.20;;;9.30;;
35290;SDS011;21411;50.024;19.220;2023-08-20T12:50:38;9.60;;;8.70;;
35290;SDS011;21411;50.024;19.220;2023-08-20T12:53:05;8.10;;;7.60;;
35290;SDS011;21411;50.024;19.220;2023-08-20T12:55:31;9.40;;;8.60;;
35290;SDS011;21411;50.024;19.220;2023-08-20T12:57:58;9.10;;;8.40;;
35290;SDS011;21411;50.024;19.220;2023-08-20T13:00:25;9.50;;;8.70;;
35290;SDS011;21411;50.024;19.220;2023-08-20T13:02:53;9.60;;;8.70;;
35290;SDS011;21411;50.024;19.220;2023-08-20T13:05:24;8.90;;;8.20;;
35290;SDS011;21411;50.024;19.220;2023-08-20T13:07:51;8.80;;;8.10;;
35290;SDS011;21411;50.024;19.220;2023-08-20T13:10:19;8.50;;;7.90;;
35290;SDS011;21411;50.024;19.220;2023-08-20T13:12:47;10.30;;;9.30;;
35290;SDS011;21411;50.024;19.220;2023-08-20T13:15:20;8.70;;;7.90;;
35290;SDS011;21411;50.024;19.220;2023-08-20T13:17:48;8.80;;;8.20;;
35290;SDS011;21411;50.024;19.220;2023-08-20T13:20:15;8.00;;;7.40;;
35290;SDS011;21411;50.024;19.220;2023-08-20T13:22:47;8.90;;;8.20;;
35290;SDS011;21411;50.024;19.220;2023-08-20T13:25:15;8.40;;;7.90;;
35290;SDS011;21411;50.024;19.220;2023-08-20T13:27:42;9.10;;;8.30;;
35290;SDS011;21411;50.024;19.220;2023-08-20T13:30:10;8.50;;;7.80;;
35290;SDS011;21411;50.024;19.220;2023-08-20T13:32:37;9.20;;;8.20;;
35290;SDS011;21411;50.024;19.220;2023-08-20T13:35:04;7.90;;;7.30;;
35290;SDS011;21411;50.024;19.220;2023-08-20T13:37:31;8.70;;;8.10;;
35290;SDS011;21411;50.024;19.220;2023-08-20T13:39:58;8.30;;;7.70;;
35290;SDS011;21411;50.024;19.220;2023-08-20T13:42:25;8.40;;;7.80;;
35290;SDS011;21411;50.024;19.220;2023-08-20T13:44:51;8.50;;;7.90;;
35290;SDS011;21411;50.024;19.220;2023-08-20T13:47:18;8.60;;;8.00;;
35290;SDS011;21411;50.024;19.220;2023-08-20T13:49:45;8.40;;;7.80;;
35290;SDS011;21411;50.024;19.220;2023-08-20T13:52:11;8.10;;;7.60;;
35290;SDS011;21411;50.024;19.220;2023-08-20T13:54:38;8.70;;;8.00;;
35290;SDS011;21411;50.024;19.220;2023-08-20T13:57:05;8.50;;;7.90;;
35290;SDS011;21411;50.024;19.220;2023-08-20T13:59:31;8.20;;;7.70;;
35290;SDS011;21411;50.024;19.220;2023-08-20T14:01:58;8.60;;;8.00;;
35290;SDS011;21411;50.024;19.220;2023-08-20T14:04:25;8.10;;;7.60;;
35290;SDS011;21411;50.024;19.220;2023-08-20T14:06:51;8.50;;;7.80;;
35290;SDS011;21411;50.024;19.220;2023-08-20T14:09:18;9.40;;;8.70;;
35290;SDS011;21411;50.024;19.220;2023-08-20T14:11:45;8.70;;;8.10;;
35290;SDS011;21411;50.024;19.220;2023-08-20T14:14:12;9.60;;;8.80;;
35290;SDS011;21411;50.024;19.220;2023-08-20T14:16:38;9.00;;;8.40;;
35290;SDS011;21411;50.024;19.220;2023-08-20T14:19:05;9.50;;;8.80;;
35290;SDS011;21411;50.024;19.220;2023-08-20T14:21:31;8.80;;;8.20;;
35290;SDS011;21411;50.024;19.220;2023-08-20T14:23:58;9.60;;;8.90;;
35290;SDS011;21411;50.024;19.220;2023-08-20T14:26:25;9.90;;;9.30;;
35290;SDS011;21411;50.024;19.220;2023-08-20T14:28:51;9.60;;;9.00;;
35290;SDS011;21411;50.024;19.220;2023-08-20T14:31:19;9.90;;;9.30;;
35290;SDS011;21411;50.024;19.220;2023-08-20T14:33:46;11.40;;;9.60;;
35290;SDS011;21411;50.024;19.220;2023-08-20T14:36:13;10.30;;;9.50;;
35290;SDS011;21411;50.024;19.220;2023-08-20T14:38:39;9.40;;;8.80;;